Time;durP1;ratioP1;P1;durP2;ratioP2;P2;SDS_P1;SDS_P2;PMS_P1;PMS_P2;Temp;Humidity;BMP_temperature;BMP_pressure;BME280_temperature;BME280_humidity;BME280_pressure;Samples;Min_cycle;Max_cycle;Signal;HPM_P1;HPM_P2
2022/08/29 00:00:22;;;;;;;3.77;1.97;;;13.40;89.90;;;;;;5052201;28;20212;-53
2022/08/29 00:02:51;;;;;;;2.57;1.90;;;13.40;99.90;;;;;;5051823;28;20262;-55
2022/08/29 00:05:20;;;;;;;2.00;1.80;;;13.40;99.90;;;;;;5051874;28;20673;-56
2022/08/29 00:07:47;;;;;;;2.80;1.80;;;13.40;99.90;;;;;;5051654;28;20675;-56
2022/08/29 00:10:14;;;;;;;2.43;1.60;;;13.40;1.00;;;;;;5051803;28;20263;-56
2022/08/29 00:12:40;;;;;;;4.67;1.83;;;13.40;1.00;;;;;;5051683;28;20274;-52
2022/08/29 00:15:10;;;;;;;3.47;1.90;;;13.30;1.00;;;;;;5051888;28;20212;-53
2022/08/29 00:17:38;;;;;;;2.93;1.90;;;13.40;1.00;;;;;;5051130;28;20282;-56
2022/08/29 00:20:06;;;;;;;4.70;2.23;;;13.30;37.30;;;;;;5051889;28;20638;-56
2022/08/29 00:22:33;;;;;;;2.93;1.80;;;13.30;99.90;;;;;;5051882;28;20207;-55
2022/08/29 00:25:03;;;;;;;3.53;2.20;;;13.30;1.00;;;;;;5051737;28;20277;-57
2022/08/29 00:27:30;;;;;;;3.60;2.23;;;13.30;80.00;;;;;;5051658;28;20210;-53
2022/08/29 00:29:56;;;;;;;4.40;2.23;;;13.30;99.90;;;;;;5051875;28;20207;-54
2022/08/29 00:32:23;;;;;;;4.87;1.87;;;13.20;99.90;;;;;;5051893;28;20620;-57
2022/08/29 00:34:53;;;;;;;4.03;2.20;;;13.20;99.90;;;;;;5051843;28;20283;-57
2022/08/29 00:37:20;;;;;;;4.77;2.10;;;13.20;1.00;;;;;;5051440;28;20205;-54
2022/08/29 00:39:46;;;;;;;5.03;1.93;;;13.20;44.50;;;;;;5052099;28;20844;-56
2022/08/29 00:42:13;;;;;;;3.43;1.70;;;13.20;99.90;;;;;;5051792;28;20270;-55
2022/08/29 00:44:39;;;;;;;5.47;2.20;;;13.10;99.90;;;;;;5051414;28;20228;-53
2022/08/29 00:47:10;;;;;;;5.57;2.30;;;13.20;99.90;;;;;;5051412;28;20644;-55
2022/08/29 00:49:41;;;;;;;4.00;1.80;;;13.10;99.90;;;;;;5051662;28;20651;-56
2022/08/29 00:52:17;;;;;;;3.97;1.60;;;13.10;1.00;;;;;;5051279;28;20212;-56
2022/08/29 00:54:49;;;;;;;2.50;1.77;;;13.10;99.90;;;;;;5051195;28;20282;-57
2022/08/29 00:57:18;;;;;;;2.67;1.63;;;13.10;99.90;;;;;;5051407;28;20191;-52
2022/08/29 00:59:46;;;;;;;3.10;1.93;;;13.00;99.90;;;;;;5051553;28;20203;-55
2022/08/29 01:02:13;;;;;;;4.20;1.90;;;13.00;1.00;;;;;;5051490;28;20211;-56
2022/08/29 01:04:40;;;;;;;7.83;1.97;;;13.00;99.90;;;;;;5051351;28;20227;-52
2022/08/29 01:07:09;;;;;;;2.47;1.70;;;12.90;99.90;;;;;;5050915;28;20228;-52
2022/08/29 01:09:37;;;;;;;4.27;1.90;;;12.90;1.00;;;;;;5051017;28;20241;-56
2022/08/29 01:12:14;;;;;;;5.43;2.00;;;12.90;1.00;;;;;;5051648;28;20212;-55
2022/08/29 01:14:46;;;;;;;4.83;2.00;;;12.80;1.00;;;;;;5051357;28;20719;-53
2022/08/29 01:17:16;;;;;;;3.83;1.80;;;12.80;99.90;;;;;;5051379;28;20211;-55
2022/08/29 01:19:47;;;;;;;3.53;2.00;;;12.80;99.90;;;;;;5051350;28;20216;-56
2022/08/29 01:22:28;;;;;;;2.67;1.80;;;12.70;1.00;;;;;;5051430;28;20195;-54
2022/08/29 01:24:57;;;;;;;3.53;1.90;;;12.70;99.90;;;;;;5051157;28;20239;-55
2022/08/29 01:27:29;;;;;;;3.20;1.70;;;12.70;99.90;;;;;;5051020;28;20225;-56
2022/08/29 01:29:56;;;;;;;3.63;1.87;;;12.60;1.00;;;;;;5051740;28;20279;-56
2022/08/29 01:32:23;;;;;;;5.20;2.17;;;12.60;3.00;;;;;;5054785;28;20211;-57
2022/08/29 01:34:50;;;;;;;3.80;2.03;;;12.50;99.90;;;;;;5054574;28;20802;-54
2022/08/29 01:37:17;;;;;;;3.87;1.60;;;12.50;99.90;;;;;;5054577;28;20256;-52
2022/08/29 01:39:45;;;;;;;5.73;2.50;;;12.40;1.00;;;;;;5054121;28;20205;-54
2022/08/29 01:42:16;;;;;;;3.03;2.00;;;12.40;1.00;;;;;;5053516;28;20259;-56
2022/08/29 01:44:48;;;;;;;5.93;2.17;;;12.30;1.00;;;;;;5054387;28;20253;-55
2022/08/29 01:47:15;;;;;;;7.37;1.83;;;12.30;99.90;;;;;;5054266;28;20263;-55
2022/08/29 01:49:42;;;;;;;3.77;2.13;;;12.30;99.90;;;;;;5054408;28;20627;-57
2022/08/29 01:52:09;;;;;;;5.27;2.17;;;12.30;99.90;;;;;;5054468;28;20680;-56
2022/08/29 01:54:36;;;;;;;3.30;2.00;;;12.20;1.00;;;;;;5054187;28;20244;-53
2022/08/29 01:57:03;;;;;;;5.57;2.20;;;12.20;1.00;;;;;;5054065;28;20668;-56
2022/08/29 01:59:32;;;;;;;2.53;1.83;;;12.20;62.30;;;;;;5054114;28;20292;-55
2022/08/29 02:02:02;;;;;;;3.53;2.00;;;12.20;99.90;;;;;;5054994;28;20278;-56
2022/08/29 02:04:29;;;;;;;3.97;2.07;;;12.20;99.90;;;;;;5054270;28;20225;-56
2022/08/29 02:06:56;;;;;;;4.87;2.20;;;12.10;99.90;;;;;;5053807;28;20221;-57
2022/08/29 02:09:23;;;;;;;4.00;2.03;;;12.10;99.90;;;;;;5054084;28;20559;-55
2022/08/29 02:11:51;;;;;;;6.50;2.20;;;12.10;99.90;;;;;;5053999;28;20644;-57
2022/08/29 02:14:18;;;;;;;2.83;2.00;;;12.10;99.90;;;;;;5053732;28;20673;-56
2022/08/29 02:16:46;;;;;;;3.87;2.03;;;12.00;99.90;;;;;;5053961;28;20254;-52
2022/08/29 02:19:13;;;;;;;5.73;1.90;;;12.00;99.90;;;;;;5053971;28;20280;-54
2022/08/29 02:21:40;;;;;;;5.00;2.73;;;12.00;99.90;;;;;;5053886;28;20210;-54
2022/08/29 02:24:08;;;;;;;5.17;2.43;;;11.90;99.90;;;;;;5053488;28;20221;-57
2022/08/29 02:26:35;;;;;;;2.50;1.80;;;11.90;99.90;;;;;;5053422;28;20229;-55
2022/08/29 02:29:01;;;;;;;3.77;2.20;;;11.90;99.90;;;;;;5053921;28;20283;-56
2022/08/29 02:31:28;;;;;;;4.60;1.93;;;11.90;99.90;;;;;;5053753;28;20271;-52
2022/08/29 02:33:56;;;;;;;2.97;1.90;;;11.90;99.90;;;;;;5053474;28;20240;-56
2022/08/29 02:36:23;;;;;;;6.10;2.07;;;11.90;99.90;;;;;;5053331;28;20676;-57
2022/08/29 02:38:50;;;;;;;6.93;2.30;;;11.90;99.90;;;;;;5053204;28;20209;-52
2022/08/29 02:41:17;;;;;;;5.10;2.10;;;11.90;1.00;;;;;;5053221;28;20668;-52
2022/08/29 02:43:43;;;;;;;3.13;2.17;;;11.90;1.00;;;;;;5053773;28;20241;-56
2022/08/29 02:46:14;;;;;;;4.20;2.10;;;11.90;1.00;;;;;;5053415;28;20220;-57
2022/08/29 02:48:40;;;;;;;3.00;1.90;;;11.90;1.00;;;;;;5053345;28;20204;-52
2022/08/29 02:51:09;;;;;;;5.23;2.23;;;11.80;1.00;;;;;;5053557;28;20209;-57
2022/08/29 02:53:35;;;;;;;5.70;2.53;;;11.80;1.00;;;;;;5052857;28;20232;-54
2022/08/29 02:56:02;;;;;;;7.03;2.60;;;11.80;1.00;;;;;;5052831;28;20259;-55
2022/08/29 02:58:29;;;;;;;3.83;1.87;;;11.80;1.00;;;;;;5053170;28;20205;-55
2022/08/29 03:00:56;;;;;;;3.00;2.00;;;11.70;1.00;;;;;;5053084;28;20213;-55
2022/08/29 03:03:22;;;;;;;3.10;2.17;;;11.70;1.00;;;;;;5053184;28;20228;-52
2022/08/29 03:05:49;;;;;;;3.30;2.17;;;11.60;1.00;;;;;;5053213;28;20328;-56
2022/08/29 03:08:17;;;;;;;2.87;2.20;;;11.60;1.00;;;;;;5052552;28;20656;-54
2022/08/29 03:10:45;;;;;;;3.20;1.77;;;11.60;1.00;;;;;;5053169;28;20209;-57
2022/08/29 03:13:12;;;;;;;3.63;2.40;;;11.60;1.00;;;;;;5052612;28;20719;-56
2022/08/29 03:15:39;;;;;;;4.53;2.10;;;11.60;1.00;;;;;;5052962;28;20202;-53
2022/08/29 03:18:06;;;;;;;5.20;1.90;;;11.60;1.00;;;;;;5052368;28;20274;-52
2022/08/29 03:20:35;;;;;;;5.40;2.03;;;11.60;1.00;;;;;;5052565;28;20209;-53
2022/08/29 03:23:02;;;;;;;3.73;1.90;;;11.60;1.00;;;;;;5052360;28;20609;-55
2022/08/29 03:25:30;;;;;;;4.77;2.33;;;11.60;1.00;;;;;;5052793;28;20228;-55
2022/08/29 03:27:58;;;;;;;2.90;2.13;;;11.60;1.00;;;;;;5052514;28;20276;-55
2022/08/29 03:30:26;;;;;;;6.30;2.33;;;11.60;1.00;;;;;;5052709;28;20240;-51
2022/08/29 03:32:53;;;;;;;6.50;2.20;;;11.50;1.00;;;;;;5052464;28;20217;-52
2022/08/29 03:35:21;;;;;;;3.17;1.97;;;11.50;1.00;;;;;;5052249;28;20255;-54
2022/08/29 03:37:48;;;;;;;3.43;1.90;;;11.50;1.00;;;;;;5052374;28;20609;-49
2022/08/29 03:40:17;;;;;;;4.47;2.10;;;11.50;1.00;;;;;;5052478;28;20335;-55
2022/08/29 03:42:46;;;;;;;8.20;2.33;;;11.50;1.00;;;;;;5052352;28;20213;-51
2022/08/29 03:45:17;;;;;;;3.13;2.10;;;11.40;1.00;;;;;;5052391;28;20800;-51
2022/08/29 03:47:44;;;;;;;6.70;2.17;;;11.40;1.00;;;;;;5052003;28;20229;-53
2022/08/29 03:50:13;;;;;;;8.73;2.73;;;11.40;1.00;;;;;;5052324;28;20602;-53
2022/08/29 03:52:41;;;;;;;4.67;2.37;;;11.40;1.00;;;;;;5051966;28;20213;-54
2022/08/29 03:55:10;;;;;;;6.03;2.77;;;11.40;1.00;;;;;;5051811;28;20557;-52
2022/08/29 03:57:36;;;;;;;23.07;12.47;;;11.30;1.00;;;;;;5051957;28;20284;-54
2022/08/29 04:00:14;;;;;;;12.53;6.83;;;11.30;1.00;;;;;;5052056;28;20631;-53
2022/08/29 04:02:42;;;;;;;10.77;5.27;;;11.30;1.00;;;;;;5052164;28;20233;-53
2022/08/29 04:05:11;;;;;;;6.43;3.13;;;11.30;1.00;;;;;;5051837;28;20271;-52
2022/08/29 04:07:40;;;;;;;8.47;3.43;;;11.30;1.00;;;;;;5051782;28;20222;-51
2022/08/29 04:10:09;;;;;;;9.93;3.00;;;11.30;1.00;;;;;;5051898;28;20255;-57
2022/08/29 04:12:35;;;;;;;4.70;2.50;;;11.30;1.00;;;;;;5051917;28;20210;-55
2022/08/29 04:15:02;;;;;;;9.07;2.80;;;11.30;1.00;;;;;;5051623;28;20236;-52
2022/08/29 04:17:31;;;;;;;5.30;2.50;;;11.30;1.00;;;;;;5051827;28;20209;-53
2022/08/29 04:19:57;;;;;;;4.13;2.60;;;11.30;1.00;;;;;;5051906;28;20784;-54
2022/08/29 04:22:24;;;;;;;3.30;2.30;;;11.20;1.00;;;;;;5051641;28;20671;-50
2022/08/29 04:24:51;;;;;;;3.67;2.63;;;11.20;1.00;;;;;;5051937;28;20229;-51
2022/08/29 04:27:18;;;;;;;9.37;3.17;;;11.30;1.00;;;;;;5051581;28;20843;-51
2022/08/29 04:29:47;;;;;;;4.27;2.83;;;11.30;1.00;;;;;;5051939;28;20268;-53
2022/08/29 04:32:13;;;;;;;4.03;2.67;;;11.20;1.00;;;;;;5051974;28;20216;-54
2022/08/29 04:34:42;;;;;;;7.27;3.00;;;11.20;1.00;;;;;;5051908;28;20233;-56
2022/08/29 04:37:08;;;;;;;6.47;3.10;;;11.20;1.00;;;;;;5051786;28;20197;-52
2022/08/29 04:39:35;;;;;;;7.30;2.93;;;11.20;1.00;;;;;;5051743;28;20267;-51
2022/08/29 04:42:02;;;;;;;7.37;3.10;;;11.20;1.00;;;;;;5051604;28;20210;-61
2022/08/29 04:44:28;;;;;;;7.70;2.93;;;11.20;1.00;;;;;;5063164;28;20293;-57
2022/08/29 04:46:55;;;;;;;7.10;3.27;;;11.30;1.00;;;;;;5070483;28;20205;-58
2022/08/29 04:49:22;;;;;;;4.63;2.87;;;11.30;1.00;;;;;;5071761;28;20251;-55
2022/08/29 04:51:52;;;;;;;6.23;3.20;;;11.30;1.00;;;;;;5071279;28;20211;-58
2022/08/29 04:54:19;;;;;;;9.87;2.97;;;11.30;5.40;;;;;;5071233;28;20267;-58
2022/08/29 04:56:45;;;;;;;6.90;3.00;;;11.40;10.00;;;;;;5070828;28;20744;-57
2022/08/29 04:59:12;;;;;;;9.40;3.33;;;11.30;17.20;;;;;;5071197;28;20721;-56
2022/08/29 05:01:39;;;;;;;6.50;3.10;;;11.40;23.80;;;;;;5071449;28;20209;-58
2022/08/29 05:04:06;;;;;;;6.07;3.00;;;11.40;28.20;;;;;;5071099;28;20275;-57
2022/08/29 05:06:32;;;;;;;6.93;3.27;;;11.40;28.90;;;;;;5074497;28;20201;-57
2022/08/29 05:09:00;;;;;;;4.93;3.10;;;11.50;30.60;;;;;;5074693;28;20239;-58
2022/08/29 05:11:29;;;;;;;8.73;3.47;;;11.50;32.80;;;;;;5075159;28;20201;-57
2022/08/29 05:13:57;;;;;;;10.83;3.50;;;11.50;34.50;;;;;;5074865;28;20270;-57
2022/08/29 05:16:23;;;;;;;6.23;3.47;;;11.50;35.30;;;;;;5074768;28;20740;-56
2022/08/29 05:18:51;;;;;;;6.13;3.30;;;11.50;37.30;;;;;;5074744;28;20254;-57
2022/08/29 05:21:24;;;;;;;6.47;3.17;;;11.60;38.50;;;;;;5074992;28;20250;-57
2022/08/29 05:23:50;;;;;;;4.70;3.00;;;11.60;38.20;;;;;;5074870;28;20275;-57
2022/08/29 05:26:19;;;;;;;8.60;3.13;;;11.60;38.00;;;;;;5074355;28;20205;-60
2022/08/29 05:28:46;;;;;;;5.60;3.00;;;11.70;38.30;;;;;;5074552;28;20224;-58
2022/08/29 05:31:14;;;;;;;8.00;4.27;;;11.70;37.30;;;;;;5074544;28;20780;-59
2022/08/29 05:33:40;;;;;;;8.40;3.50;;;11.80;40.00;;;;;;5074425;28;20232;-57
2022/08/29 05:36:08;;;;;;;6.03;3.47;;;11.80;40.40;;;;;;5073910;28;20278;-54
2022/08/29 05:38:34;;;;;;;11.83;3.83;;;11.90;41.00;;;;;;5074962;28;20201;-60
2022/08/29 05:41:01;;;;;;;4.13;3.00;;;11.90;41.20;;;;;;5074588;28;20211;-59
2022/08/29 05:43:29;;;;;;;8.03;3.17;;;11.90;39.70;;;;;;5074542;28;20221;-58
2022/08/29 05:46:01;;;;;;;9.87;3.90;;;12.00;37.40;;;;;;5073841;28;20209;-60
2022/08/29 05:48:28;;;;;;;7.03;3.60;;;12.00;35.40;;;;;;5074188;28;20221;-61
2022/08/29 05:50:55;;;;;;;8.90;3.73;;;12.00;35.40;;;;;;5074017;28;20663;-59
2022/08/29 05:53:21;;;;;;;12.20;3.80;;;12.10;36.00;;;;;;5074138;28;20279;-59
2022/08/29 05:55:48;;;;;;;5.97;3.53;;;12.10;35.40;;;;;;5073813;28;20201;-66
2022/08/29 05:58:15;;;;;;;9.87;3.43;;;12.20;32.30;;;;;;5073969;28;20209;-63
2022/08/29 06:00:45;;;;;;;8.97;3.70;;;12.30;25.10;;;;;;5073892;28;20267;-64
2022/08/29 06:03:12;;;;;;;8.30;4.10;;;12.40;18.30;;;;;;5073793;28;20228;-64
2022/08/29 06:05:39;;;;;;;7.17;3.90;;;12.40;13.70;;;;;;5074068;28;20605;-62
2022/08/29 06:08:06;;;;;;;7.07;4.13;;;12.50;9.70;;;;;;5073793;28;20228;-60
2022/08/29 06:10:33;;;;;;;7.70;3.50;;;12.60;4.00;;;;;;5074146;28;20240;-58
2022/08/29 06:12:59;;;;;;;11.03;3.67;;;12.60;1.00;;;;;;5073445;28;20208;-66
2022/08/29 06:15:28;;;;;;;10.67;3.93;;;12.70;1.00;;;;;;5073523;28;20270;-68
2022/08/29 06:17:56;;;;;;;8.17;3.90;;;12.80;1.00;;;;;;5073158;28;20210;-64
2022/08/29 06:20:23;;;;;;;8.47;3.40;;;13.00;1.00;;;;;;5073780;28;20217;-65
2022/08/29 06:22:49;;;;;;;19.50;9.63;;;13.20;1.00;;;;;;5073502;28;20209;-65
2022/08/29 06:25:16;;;;;;;10.37;5.80;;;13.30;1.00;;;;;;5073727;28;20559;-66
2022/08/29 06:27:43;;;;;;;9.37;3.63;;;13.30;1.00;;;;;;5073053;28;20228;-64
2022/08/29 06:30:10;;;;;;;11.20;3.90;;;13.40;1.00;;;;;;5073376;28;20256;-65
2022/08/29 06:32:36;;;;;;;9.37;3.90;;;13.40;1.00;;;;;;5073142;28;20583;-64
2022/08/29 06:35:05;;;;;;;13.17;3.60;;;13.60;1.00;;;;;;5073462;28;20227;-66
2022/08/29 06:37:32;;;;;;;6.63;3.30;;;13.70;1.00;;;;;;5073086;28;20205;-65
2022/08/29 06:39:58;;;;;;;7.57;3.80;;;13.90;1.00;;;;;;5073026;28;20208;-62
2022/08/29 06:42:25;;;;;;;12.00;4.60;;;14.10;1.00;;;;;;5073430;28;20269;-63
2022/08/29 06:44:52;;;;;;;9.70;4.37;;;14.30;99.90;;;;;;5072670;28;20631;-63
2022/08/29 06:47:18;;;;;;;10.50;4.17;;;14.40;99.90;;;;;;5073034;28;20208;-64
2022/08/29 06:49:45;;;;;;;6.20;3.97;;;14.60;99.90;;;;;;5072993;28;20233;-63
2022/08/29 06:52:13;;;;;;;8.40;3.90;;;14.60;99.90;;;;;;5073077;28;20208;-64
2022/08/29 06:54:40;;;;;;;9.10;3.70;;;14.80;99.90;;;;;;5056309;28;20286;-64
2022/08/29 06:57:07;;;;;;;7.40;3.83;;;14.90;99.90;;;;;;5071225;28;20209;-65
2022/08/29 06:59:33;;;;;;;10.40;3.77;;;15.10;99.90;;;;;;5072317;28;20205;-64
2022/08/29 07:02:00;;;;;;;6.43;3.77;;;14.90;1.00;;;;;;5072261;28;20209;-64
2022/08/29 07:04:28;;;;;;;6.23;3.60;;;14.70;1.00;;;;;;5072294;28;20775;-63
2022/08/29 07:06:54;;;;;;;10.27;4.00;;;14.70;99.90;;;;;;5071835;28;20204;-63
2022/08/29 07:09:24;;;;;;;10.63;3.93;;;14.70;99.90;;;;;;5072320;28;20281;-63
2022/08/29 07:11:52;;;;;;;8.50;3.77;;;14.60;99.90;;;;;;5071842;28;20201;-63
2022/08/29 07:14:19;;;;;;;7.50;3.63;;;14.60;99.90;;;;;;5072190;28;20231;-64
2022/08/29 07:16:46;;;;;;;10.63;4.30;;;14.70;99.90;;;;;;5071609;28;20213;-64
2022/08/29 07:19:12;;;;;;;4.93;3.40;;;14.60;1.00;;;;;;5072153;28;20740;-64
2022/08/29 07:21:39;;;;;;;8.50;3.90;;;14.60;15.20;;;;;;5072253;28;20208;-64
2022/08/29 07:24:09;;;;;;;10.20;4.60;;;14.50;25.10;;;;;;5074297;22;20244;-64
2022/08/29 07:26:41;;;;;;;9.33;4.67;;;14.60;58.40;;;;;;5013066;28;20214;-64
2022/08/29 07:29:17;;;;;;;9.73;4.87;;;14.70;1.00;;;;;;5011455;28;20301;-64
2022/08/29 07:31:44;;;;;;;13.50;4.70;;;14.90;1.00;;;;;;5012571;28;20562;-64
2022/08/29 07:34:11;;;;;;;11.93;4.53;;;15.20;3.90;;;;;;5011875;28;20650;-65
2022/08/29 07:36:38;;;;;;;10.27;4.67;;;15.40;99.90;;;;;;5011848;28;20215;-63
2022/08/29 07:39:07;;;;;;;10.00;4.33;;;15.40;85.40;;;;;;5011520;28;20261;-64
2022/08/29 07:41:34;;;;;;;11.30;5.23;;;15.30;75.70;;;;;;5011948;28;20202;-65
2022/08/29 07:44:02;;;;;;;9.07;3.77;;;15.20;99.90;;;;;;5011793;28;20230;-64
2022/08/29 07:46:30;;;;;;;9.03;4.30;;;15.30;1.00;;;;;;5011202;28;20541;-65
2022/08/29 07:48:58;;;;;;;7.60;4.13;;;15.30;8.10;;;;;;5011946;28;20219;-64
2022/08/29 07:51:25;;;;;;;9.37;4.10;;;15.40;99.90;;;;;;5011679;28;20207;-67
2022/08/29 07:53:53;;;;;;;6.70;3.40;;;15.50;1.00;;;;;;5011397;28;20223;-65
2022/08/29 07:56:22;;;;;;;7.10;2.80;;;15.70;1.00;;;;;;5015244;28;20206;-65
2022/08/29 07:58:49;;;;;;;16.00;3.10;;;15.70;1.00;;;;;;5030962;28;20298;-58
2022/08/29 08:01:18;;;;;;;7.73;2.90;;;15.90;1.00;;;;;;5031327;28;20256;-59
2022/08/29 08:03:45;;;;;;;10.70;3.33;;;16.00;99.90;;;;;;5031040;28;20234;-62
2022/08/29 08:06:12;;;;;;;6.13;3.50;;;16.10;99.90;;;;;;5031131;28;20206;-60
2022/08/29 08:08:39;;;;;;;7.33;3.43;;;16.20;99.90;;;;;;5031215;28;20656;-61
2022/08/29 08:11:08;;;;;;;7.43;3.47;;;16.20;1.00;;;;;;5031319;28;20685;-65
2022/08/29 08:13:35;;;;;;;6.03;2.50;;;16.30;1.00;;;;;;5031035;28;20729;-64
2022/08/29 08:16:05;;;;;;;7.87;2.60;;;16.50;99.90;;;;;;5031162;28;20202;-62
2022/08/29 08:18:34;;;;;;;7.63;2.53;;;16.70;1.00;;;;;;5030804;28;20699;-64
2022/08/29 08:21:01;;;;;;;5.63;2.70;;;16.70;1.00;;;;;;5031697;28;20206;-64
2022/08/29 08:23:28;;;;;;;7.97;2.80;;;16.70;1.00;;;;;;5032914;28;20242;-65
2022/08/29 08:25:55;;;;;;;8.07;2.83;;;16.80;1.00;;;;;;5032870;28;20203;-64
2022/08/29 08:28:22;;;;;;;7.80;3.20;;;16.90;99.90;;;;;;5032958;28;20225;-62
2022/08/29 08:30:48;;;;;;;6.27;2.37;;;17.10;1.00;;;;;;5033079;28;20264;-64
2022/08/29 08:33:15;;;;;;;6.80;1.97;;;17.40;99.90;;;;;;5032378;28;20646;-62
2022/08/29 08:35:43;;;;;;;5.80;2.13;;;17.40;99.90;;;;;;5031652;28;20210;-62
2022/08/29 08:38:10;;;;;;;7.33;2.50;;;17.30;99.90;;;;;;5031277;28;20210;-62
2022/08/29 08:40:42;;;;;;;5.57;2.40;;;17.30;99.90;;;;;;5035004;28;20746;-59
2022/08/29 08:43:13;;;;;;;8.00;2.40;;;17.40;99.90;;;;;;5035075;28;20635;-56
2022/08/29 08:45:42;;;;;;;8.07;2.23;;;17.20;99.90;;;;;;5034690;28;20202;-59
2022/08/29 08:48:13;;;;;;;4.27;2.37;;;17.40;99.90;;;;;;5034337;28;20210;-59
2022/08/29 08:50:45;;;;;;;8.27;2.40;;;17.50;99.90;;;;;;5035093;28;20210;-61
2022/08/29 08:53:18;;;;;;;7.80;2.20;;;17.80;99.90;;;;;;5034792;28;20242;-59
2022/08/29 08:55:47;;;;;;;6.00;1.77;;;18.10;99.90;;;;;;5035221;28;20588;-53
2022/08/29 08:58:25;;;;;;;4.97;1.63;;;18.00;99.90;;;;;;5033774;28;20202;-59
2022/08/29 09:00:57;;;;;;;6.47;1.90;;;18.00;99.90;;;;;;5035275;28;20210;-58
2022/08/29 09:03:57;;;;;;;5.63;2.40;;;18.20;99.90;;;;;;5034963;28;20685;-59
2022/08/29 09:06:44;;;;;;;10.70;2.60;;;18.40;99.90;;;;;;5034149;28;20248;-59
2022/08/29 09:09:20;;;;;;;6.53;2.67;;;18.30;99.90;;;;;;5034520;28;20221;-58
2022/08/29 09:12:00;;;;;;;5.07;2.23;;;18.50;99.90;;;;;;5034596;28;20214;-65
2022/08/29 09:14:42;;;;;;;18.50;3.87;;;18.70;99.90;;;;;;5034217;28;20237;-65
2022/08/29 09:17:16;;;;;;;7.97;3.10;;;18.70;99.90;;;;;;5033904;28;20210;-67
2022/08/29 09:19:45;;;;;;;6.03;2.70;;;19.00;99.90;;;;;;5034488;28;20203;-65
2022/08/29 09:22:18;;;;;;;4.50;2.40;;;19.20;99.90;;;;;;5034378;28;20752;-64
2022/08/29 09:24:49;;;;;;;6.83;2.50;;;19.20;99.90;;;;;;5034197;28;20234;-65
2022/08/29 09:27:20;;;;;;;9.40;2.40;;;19.60;99.90;;;;;;5034089;28;20202;-64
2022/08/29 09:29:48;;;;;;;4.27;2.10;;;19.80;99.90;;;;;;5033807;28;20296;-63
2022/08/29 09:32:15;;;;;;;4.97;2.30;;;20.00;99.90;;;;;;5034084;28;20207;-65
2022/08/29 09:34:46;;;;;;;6.90;2.90;;;19.80;99.90;;;;;;5034399;28;20230;-65
2022/08/29 09:37:26;;;;;;;6.80;2.57;;;19.70;99.90;;;;;;5033482;28;20206;-66
2022/08/29 09:39:58;;;;;;;7.60;2.40;;;19.50;99.90;;;;;;5033665;28;20209;-63
2022/08/29 09:42:31;;;;;;;5.67;2.30;;;19.80;99.90;;;;;;5034042;28;20233;-63
2022/08/29 09:45:03;;;;;;;5.17;2.00;;;19.40;99.90;;;;;;5033979;28;20725;-63
2022/08/29 09:47:32;;;;;;;7.60;1.90;;;19.50;99.90;;;;;;5033181;28;20734;-64
2022/08/29 09:50:09;;;;;;;5.30;2.07;;;19.40;99.90;;;;;;5033599;28;20258;-63
2022/08/29 09:52:40;;;;;;;5.40;2.47;;;18.60;99.90;;;;;;5033122;28;20210;-62
2022/08/29 09:55:20;;;;;;;6.57;2.23;;;18.90;99.90;;;;;;5034121;28;20205;-64
2022/08/29 09:57:51;;;;;;;6.73;2.53;;;19.00;99.90;;;;;;5031331;28;20289;-63
2022/08/29 10:00:25;;;;;;;7.53;2.63;;;19.00;99.90;;;;;;5027715;28;20260;-65
2022/08/29 10:02:55;;;;;;;5.43;2.40;;;19.30;99.90;;;;;;5033661;28;20206;-65
2022/08/29 10:05:40;;;;;;;7.87;2.60;;;19.50;99.90;;;;;;5033934;28;20230;-63
2022/08/29 10:08:26;;;;;;;9.40;2.70;;;19.70;99.90;;;;;;5032791;28;20289;-63
2022/08/29 10:10:56;;;;;;;6.40;2.90;;;19.70;99.90;;;;;;5033623;28;20696;-61
2022/08/29 10:13:27;;;;;;;8.07;2.43;;;19.80;99.90;;;;;;5033281;28;20230;-62
2022/08/29 10:16:01;;;;;;;5.13;2.60;;;19.90;99.90;;;;;;5033141;28;20260;-62
2022/08/29 10:18:37;;;;;;;8.53;2.50;;;19.50;99.90;;;;;;5033177;28;20660;-62
2022/08/29 10:21:16;;;;;;;8.50;2.53;;;19.30;99.90;;;;;;5032959;28;20700;-63
2022/08/29 10:24:00;;;;;;;5.00;1.97;;;19.30;99.90;;;;;;5033121;28;20614;-64
2022/08/29 10:26:38;;;;;;;5.27;2.23;;;19.40;99.90;;;;;;5016238;28;20670;-62
2022/08/29 10:29:14;;;;;;;6.03;2.27;;;19.60;99.90;;;;;;5012920;28;20226;-63
2022/08/29 10:31:47;;;;;;;7.60;2.30;;;19.80;99.90;;;;;;5010607;28;20573;-61
2022/08/29 10:34:28;;;;;;;7.33;2.20;;;19.90;99.90;;;;;;5012905;28;20223;-63
2022/08/29 10:37:00;;;;;;;6.13;2.33;;;19.90;99.90;;;;;;5012428;28;20273;-63
2022/08/29 10:39:36;;;;;;;8.23;2.07;;;19.90;99.90;;;;;;5013068;28;20288;-63
2022/08/29 10:42:08;;;;;;;3.60;2.23;;;20.20;99.90;;;;;;5012909;28;20206;-62
2022/08/29 10:44:46;;;;;;;4.77;2.40;;;20.30;99.90;;;;;;5012339;28;20318;-62
2022/08/29 10:47:24;;;;;;;4.30;2.03;;;20.20;99.90;;;;;;5012949;28;20206;-62
2022/08/29 10:50:02;;;;;;;7.33;2.10;;;20.10;99.90;;;;;;5012674;28;20226;-62
2022/08/29 10:52:38;;;;;;;6.20;2.30;;;20.30;99.90;;;;;;5019177;28;20202;-62
2022/08/29 10:55:12;;;;;;;7.67;1.97;;;20.40;99.90;;;;;;5031914;28;20230;-63
2022/08/29 10:57:46;;;;;;;7.27;2.37;;;20.70;99.90;;;;;;5026000;28;20257;-62
2022/08/29 11:00:18;;;;;;;3.53;2.03;;;20.50;99.90;;;;;;5012825;28;20187;-62
2022/08/29 11:02:50;;;;;;;6.73;2.20;;;20.40;99.90;;;;;;5010689;28;20736;-62
2022/08/29 11:05:21;;;;;;;3.20;1.60;;;20.30;99.90;;;;;;5012791;28;20214;-62
2022/08/29 11:07:53;;;;;;;6.47;2.30;;;20.20;99.90;;;;;;5012592;28;20207;-61
2022/08/29 11:10:26;;;;;;;8.73;2.23;;;20.00;99.90;;;;;;5012825;28;20246;-63
2022/08/29 11:12:58;;;;;;;5.40;2.40;;;20.00;99.90;;;;;;5012326;28;20650;-63
2022/08/29 11:15:31;;;;;;;4.73;2.17;;;19.90;99.90;;;;;;5012586;28;20290;-65
2022/08/29 11:18:04;;;;;;;3.70;1.90;;;19.90;99.90;;;;;;5012201;28;20194;-59
2022/08/29 11:20:35;;;;;;;6.87;2.80;;;19.70;99.90;;;;;;5012488;28;20207;-59
2022/08/29 11:23:08;;;;;;;6.30;1.97;;;19.60;99.90;;;;;;5011890;28;20656;-58
2022/08/29 11:25:40;;;;;;;5.00;2.17;;;19.80;99.90;;;;;;5012399;28;20215;-62
2022/08/29 11:28:18;;;;;;;4.27;2.13;;;20.00;99.90;;;;;;5011734;28;20769;-62
2022/08/29 11:30:50;;;;;;;4.60;1.73;;;20.10;99.90;;;;;;5012347;28;20222;-63
2022/08/29 11:33:28;;;;;;;4.30;1.90;;;20.30;99.90;;;;;;5010679;28;20227;-63
2022/08/29 11:36:19;;;;;;;6.47;2.30;;;20.50;99.90;;;;;;5010101;28;20207;-59
2022/08/29 11:38:59;;;;;;;6.33;2.07;;;20.70;99.90;;;;;;5011771;28;20565;-62
2022/08/29 11:41:30;;;;;;;2.77;1.50;;;20.60;99.90;;;;;;5010743;28;20207;-59
2022/08/29 11:44:07;;;;;;;5.23;1.93;;;20.40;99.90;;;;;;5011109;28;20227;-61
2022/08/29 11:46:39;;;;;;;4.47;1.77;;;20.30;99.90;;;;;;5010805;28;20206;-62
2022/08/29 11:49:37;;;;;;;7.00;2.40;;;20.50;99.90;;;;;;5018712;28;20264;-60
2022/08/29 11:52:21;;;;;;;6.20;1.90;;;20.60;99.90;;;;;;5030866;28;20206;-59
2022/08/29 11:55:09;;;;;;;3.97;1.90;;;20.80;99.90;;;;;;5011733;28;20717;-63
2022/08/29 11:57:49;;;;;;;7.87;2.43;;;21.00;99.90;;;;;;5011318;28;20211;-62
2022/08/29 12:00:26;;;;;;;6.40;2.27;;;21.20;99.90;;;;;;5011705;28;20652;-62
2022/08/29 12:02:53;;;;;;;6.00;2.00;;;21.40;99.90;;;;;;5011262;28;20202;-61
2022/08/29 12:05:45;;;;;;;10.33;2.17;;;21.50;99.90;;;;;;5011766;28;20301;-61
2022/08/29 12:08:16;;;;;;;7.87;2.10;;;21.50;99.90;;;;;;5011258;28;20215;-61
2022/08/29 12:10:53;;;;;;;3.60;1.70;;;21.40;99.90;;;;;;5011476;28;20309;-61
2022/08/29 12:13:55;;;;;;;4.50;1.43;;;21.60;99.90;;;;;;5011189;28;20784;-57
2022/08/29 12:16:43;;;;;;;6.27;2.13;;;21.40;99.90;;;;;;5011272;28;20302;-58
2022/08/29 12:19:10;;;;;;;4.90;2.17;;;21.30;99.90;;;;;;5010864;28;20637;-58
2022/08/29 12:21:47;;;;;;;4.90;1.63;;;21.20;99.90;;;;;;5011815;28;20254;-58
2022/08/29 12:24:46;;;;;;;4.53;1.90;;;21.20;99.90;;;;;;5010834;28;20293;-54
2022/08/29 12:27:23;;;;;;;6.27;1.93;;;21.00;99.90;;;;;;5011241;28;20629;-58
2022/08/29 12:29:51;;;;;;;6.17;2.10;;;21.00;99.90;;;;;;5010685;28;20235;-51
2022/08/29 12:32:44;;;;;;;9.87;4.27;;;21.00;99.90;;;;;;5011311;28;20356;-55
2022/08/29 12:35:25;;;;;;;4.40;2.00;;;21.20;99.90;;;;;;5010937;28;20203;-55
2022/08/29 12:38:09;;;;;;;5.50;2.13;;;21.30;99.90;;;;;;5011016;28;20621;-54
2022/08/29 12:40:53;;;;;;;4.40;1.90;;;21.30;99.90;;;;;;5011019;28;20257;-58
2022/08/29 12:43:34;;;;;;;4.73;2.03;;;21.50;99.90;;;;;;5011120;28;20230;-55
2022/08/29 12:46:08;;;;;;;5.40;2.17;;;21.30;99.90;;;;;;5010841;28;20272;-58
2022/08/29 12:48:41;;;;;;;7.53;2.20;;;21.40;99.90;;;;;;5011301;28;20203;-59
2022/08/29 12:51:08;;;;;;;4.30;1.80;;;21.50;99.90;;;;;;5010903;28;20947;-56
2022/08/29 12:53:36;;;;;;;5.33;2.30;;;21.80;99.90;;;;;;5011001;28;20614;-58
2022/08/29 12:56:13;;;;;;;3.67;1.77;;;22.10;99.90;;;;;;5010549;28;20254;-59
2022/08/29 12:58:43;;;;;;;5.00;2.03;;;22.00;99.90;;;;;;5011010;28;20206;-57
2022/08/29 13:01:25;;;;;;;7.33;2.30;;;22.00;99.90;;;;;;5011370;28;20207;-62
2022/08/29 13:03:59;;;;;;;3.80;1.90;;;22.30;99.90;;;;;;5010719;28;20222;-53
2022/08/29 13:06:27;;;;;;;5.80;2.40;;;22.30;99.90;;;;;;5010405;28;20214;-56